Time;durP1;ratioP1;P1;durP2;ratioP2;P2;SDS_P1;SDS_P2;PMS_P1;PMS_P2;Temp;Humidity;BMP_temperature;BMP_pressure;BME280_temperature;BME280_humidity;BME280_pressure;Samples;Min_cycle;Max_cycle;Signal;HPM_P1;HPM_P2
2021/09/18 00:00:09;;;;;;;6.00;5.10;;;;;;;13.94;79.07;100021.97;116726;1189;21972;-76
2021/09/18 00:03:00;;;;;;;5.10;4.60;;;;;;;13.96;79.23;100028.39;116753;1189;22511;-78
2021/09/18 00:05:30;;;;;;;5.20;4.80;;;;;;;13.98;79.23;100028.27;116609;1192;22059;-79
2021/09/18 00:07:59;;;;;;;6.40;5.70;;;;;;;14.01;79.15;100024.45;116708;1190;23575;-77
2021/09/18 00:10:29;;;;;;;6.10;5.60;;;;;;;14.00;79.07;100027.02;116833;1189;22359;-77
2021/09/18 00:12:58;;;;;;;6.30;5.80;;;;;;;13.98;78.97;100028.23;116742;1190;21930;-76
2021/09/18 00:15:30;;;;;;;6.10;5.60;;;;;;;14.00;79.11;100025.80;116749;1190;23519;-77
2021/09/18 00:18:00;;;;;;;;;;;;;;;14.01;79.05;100026.98;116791;1190;23421;-77
2021/09/18 00:20:30;;;;;;;6.90;5.90;;;;;;;13.96;78.97;100024.92;116639;1188;21893;-78
2021/09/18 00:23:00;;;;;;;6.00;5.50;;;;;;;13.94;78.98;100023.85;116380;1192;21886;-77
2021/09/18 00:25:29;;;;;;;5.70;5.20;;;;;;;13.96;79.02;100027.00;116482;1192;21974;-77
2021/09/18 00:27:59;;;;;;;6.90;6.40;;;;;;;13.98;79.01;100023.20;116629;1192;21893;-77
2021/09/18 00:30:28;;;;;;;7.60;6.90;;;;;;;13.99;78.91;100022.11;116470;1188;22948;-76
2021/09/18 00:32:58;;;;;;;6.60;6.10;;;;;;;14.01;78.89;100025.92;116460;1192;21898;-76
2021/09/18 00:35:27;;;;;;;6.80;6.30;;;;;;;14.02;78.76;100025.56;116507;1192;21885;-77
2021/09/18 00:37:57;;;;;;;7.40;6.80;;;;;;;14.01;78.74;100023.27;116646;1188;21878;-76
2021/09/18 00:40:28;;;;;;;7.40;6.80;;;;;;;14.01;78.61;100020.98;116743;1188;23534;-77
2021/09/18 00:42:57;;;;;;;7.50;6.90;;;;;;;14.02;78.67;100023.89;116807;1187;21982;-77
2021/09/18 00:45:26;;;;;;;7.40;6.90;;;;;;;14.02;78.68;100024.83;116661;1187;22727;-78
2021/09/18 00:47:56;;;;;;;7.30;6.70;;;;;;;14.01;78.64;100024.05;116766;1187;22973;-77
2021/09/18 00:50:27;;;;;;;;;;;;;;;14.02;78.60;100026.95;116474;1191;21944;-77
2021/09/18 00:52:58;;;;;;;7.90;7.30;;;;;;;13.95;78.73;100023.00;116498;1192;21896;-78
2021/09/18 00:55:30;;;;;;;7.90;7.30;;;;;;;13.92;78.75;100024.29;116472;1181;24138;-78
2021/09/18 00:57:59;;;;;;;8.50;7.80;;;;;;;13.93;78.69;100025.93;116489;1190;21885;-78
2021/09/18 01:00:33;;;;;;;7.30;6.70;;;;;;;13.95;78.75;100026.76;116524;1191;23476;-78
2021/09/18 01:03:02;;;;;;;8.00;7.20;;;;;;;13.96;78.58;100026.36;116751;1189;23485;-78
2021/09/18 01:05:33;;;;;;;7.50;6.90;;;;;;;13.96;78.60;100028.06;116619;1191;24141;-77
2021/09/18 01:08:04;;;;;;;7.10;6.60;;;;;;;13.96;78.49;100027.00;116408;1193;22876;-78
2021/09/18 01:10:33;;;;;;;7.10;6.60;;;;;;;13.97;78.49;100027.90;116651;1193;21988;-77
2021/09/18 01:13:12;;;;;;;8.20;7.10;;;;;;;13.98;78.50;100028.33;116414;1193;21966;-77
2021/09/18 01:15:42;;;;;;;8.40;7.70;;;;;;;13.99;78.60;100027.46;116738;1189;22192;-77
2021/09/18 01:18:12;;;;;;;7.70;7.10;;;;;;;14.01;78.40;100027.35;116886;1189;21920;-77
2021/09/18 01:20:44;;;;;;;7.60;7.00;;;;;;;14.02;78.24;100025.36;116752;1189;21890;-77
2021/09/18 01:23:22;;;;;;;8.40;7.70;;;;;;;14.01;78.25;100022.33;116737;1188;21934;-77
2021/09/18 01:25:53;;;;;;;8.30;7.60;;;;;;;13.99;78.45;100023.88;116915;1188;21887;-77
2021/09/18 01:28:25;;;;;;;8.50;7.90;;;;;;;13.98;78.31;100024.89;117103;1188;22904;-77
2021/09/18 01:30:55;;;;;;;8.60;7.90;;;;;;;13.98;78.27;100025.01;117072;1187;22897;-78
2021/09/18 01:33:24;;;;;;;8.50;7.80;;;;;;;13.98;78.34;100023.75;116914;1185;22942;-77
2021/09/18 01:35:53;;;;;;;8.90;8.20;;;;;;;13.98;78.28;100022.52;116963;1187;21875;-77
2021/09/18 01:38:23;;;;;;;7.80;7.30;;;;;;;13.96;78.26;100020.59;116945;1187;23898;-78
2021/09/18 01:40:52;;;;;;;8.10;6.80;;;;;;;13.96;78.32;100015.13;117060;1176;21906;-78
2021/09/18 01:43:22;;;;;;;8.40;7.70;;;;;;;13.97;78.11;100011.31;117127;1184;22210;-78
2021/09/18 01:45:52;;;;;;;8.00;7.40;;;;;;;13.96;78.11;100003.59;116751;1191;21884;-78
2021/09/18 01:48:21;;;;;;;8.40;7.70;;;;;;;13.95;78.18;100007.07;116659;1187;22945;-76
2021/09/18 01:50:52;;;;;;;8.00;7.40;;;;;;;13.94;78.33;99999.42;116435;1194;22913;-77
2021/09/18 01:53:24;;;;;;;10.30;8.30;;;;;;;13.92;78.23;99994.72;116366;1193;23581;-78
2021/09/18 01:55:53;;;;;;;8.00;7.40;;;;;;;13.91;78.38;99994.71;116433;1190;23468;-78
2021/09/18 01:58:23;;;;;;;8.00;7.40;;;;;;;13.91;78.33;99997.40;116454;1193;21916;-78
2021/09/18 02:00:56;;;;;;;7.80;7.10;;;;;;;13.93;78.42;99995.54;116513;1189;23465;-78
2021/09/18 02:03:26;;;;;;;8.30;7.50;;;;;;;13.95;78.41;99993.30;116384;1192;23460;-78
2021/09/18 02:05:56;;;;;;;8.40;7.70;;;;;;;13.95;78.15;99994.20;116743;1188;23438;-77
2021/09/18 02:08:26;;;;;;;7.70;7.20;;;;;;;13.93;78.15;99994.48;116451;1193;23449;-78
2021/09/18 02:10:57;;;;;;;9.30;7.90;;;;;;;13.93;78.29;99992.30;116506;1193;21957;-77
2021/09/18 02:13:26;;;;;;;7.90;7.20;;;;;;;13.94;78.29;99992.06;116518;1188;21877;-78
2021/09/18 02:15:56;;;;;;;7.60;7.00;;;;;;;13.94;78.28;99990.80;116613;1190;21875;-78
2021/09/18 02:18:25;;;;;;;7.70;7.10;;;;;;;13.94;78.27;99990.83;116577;1192;21884;-78
2021/09/18 02:20:55;;;;;;;8.40;7.50;;;;;;;13.93;78.22;99992.30;116512;1192;21894;-78
2021/09/18 02:23:24;;;;;;;7.80;7.20;;;;;;;13.94;78.20;99991.69;116661;1192;21883;-78
2021/09/18 02:25:53;;;;;;;9.10;8.10;;;;;;;13.94;78.20;99991.17;116661;1190;21879;-77
2021/09/18 02:28:23;;;;;;;8.10;7.50;;;;;;;13.95;78.26;99991.52;116725;1190;23664;-79
2021/09/18 02:30:55;;;;;;;8.90;8.20;;;;;;;13.97;78.14;99988.40;116357;1194;21901;-77
2021/09/18 02:33:24;;;;;;;8.00;7.40;;;;;;;13.98;78.17;99988.29;116200;1194;22913;-77
2021/09/18 02:35:54;;;;;;;8.70;8.00;;;;;;;13.98;78.18;99987.02;116293;1194;22842;-76
2021/09/18 02:38:27;;;;;;;10.10;9.10;;;;;;;13.97;78.13;99986.85;116317;1194;22933;-78
2021/09/18 02:40:56;;;;;;;12.20;9.20;;;;;;;13.95;78.04;99983.52;116283;1194;23547;-77
2021/09/18 02:43:25;;;;;;;11.60;10.60;;;;;;;13.94;77.98;99983.04;116370;1192;24142;-77
2021/09/18 02:45:55;;;;;;;12.50;10.60;;;;;;;13.91;77.98;99981.39;116629;1184;21896;-78
2021/09/18 02:48:24;;;;;;;11.30;10.40;;;;;;;13.89;77.98;99980.61;116310;1192;22902;-78
2021/09/18 02:51:00;;;;;;;11.60;10.70;;;;;;;13.88;77.96;99979.14;116450;1193;23622;-78
2021/09/18 02:53:29;;;;;;;12.70;11.60;;;;;;;13.86;78.09;99979.32;116248;1195;21885;-78
2021/09/18 02:56:02;;;;;;;13.50;12.20;;;;;;;13.85;78.07;99974.26;116097;1191;24216;-77
2021/09/18 02:58:34;;;;;;;13.10;11.80;;;;;;;13.84;78.13;99970.17;116269;1193;22920;-78
2021/09/18 03:01:04;;;;;;;13.40;12.00;;;;;;;13.82;78.30;99967.52;116258;1197;22669;-78
2021/09/18 03:03:33;;;;;;;14.60;11.10;;;;;;;13.82;78.18;99965.71;116121;1197;21891;-77
2021/09/18 03:06:03;;;;;;;11.80;10.70;;;;;;;13.83;78.26;99964.61;116171;1194;23445;-77
2021/09/18 03:08:35;;;;;;;11.70;10.80;;;;;;;13.82;78.16;99968.95;116324;1192;23546;-77
2021/09/18 03:11:06;;;;;;;12.00;11.00;;;;;;;13.80;78.23;99969.91;116575;1189;22276;-77
2021/09/18 03:13:36;;;;;;;10.60;9.50;;;;;;;13.79;78.36;99965.58;116753;1189;23434;-78
2021/09/18 03:16:08;;;;;;;12.30;11.20;;;;;;;13.78;78.22;99968.34;116790;1189;22828;-77
2021/09/18 03:18:38;;;;;;;11.70;10.80;;;;;;;13.77;78.11;99968.22;116947;1188;21890;-77
2021/09/18 03:21:08;;;;;;;10.40;9.60;;;;;;;13.76;78.13;99968.13;117032;1188;21883;-78
2021/09/18 03:23:37;;;;;;;10.00;9.30;;;;;;;13.76;78.10;99966.05;116989;1188;21906;-78
2021/09/18 03:26:07;;;;;;;10.30;9.50;;;;;;;13.77;78.22;99965.92;116966;1188;22944;-78
2021/09/18 03:28:36;;;;;;;11.20;10.30;;;;;;;13.77;78.24;99962.05;116831;1187;24142;-77
2021/09/18 03:31:05;;;;;;;10.90;10.10;;;;;;;13.77;78.30;99961.84;117045;1188;21878;-77
2021/09/18 03:33:39;;;;;;;10.60;9.70;;;;;;;13.78;78.18;99963.54;117050;1188;23508;-80
2021/09/18 03:36:08;;;;;;;11.40;10.40;;;;;;;13.78;78.16;99965.98;116704;1191;21884;-79
2021/09/18 03:38:38;;;;;;;11.10;10.20;;;;;;;13.78;78.01;99971.48;116643;1191;23471;-77
2021/09/18 03:41:07;;;;;;;11.30;10.30;;;;;;;13.78;78.04;99971.66;116635;1190;23021;-78
2021/09/18 03:43:37;;;;;;;13.30;12.30;;;;;;;13.78;77.98;99969.54;116725;1187;22898;-78
2021/09/18 03:46:06;;;;;;;13.00;12.00;;;;;;;13.77;77.86;99969.61;116588;1190;22449;-78
2021/09/18 03:48:38;;;;;;;12.80;11.80;;;;;;;13.77;77.91;99974.80;116642;1191;21911;-77
2021/09/18 03:51:08;;;;;;;12.70;11.80;;;;;;;13.75;77.93;99969.32;116744;1190;23527;-77
2021/09/18 03:53:37;;;;;;;12.60;11.60;;;;;;;13.75;77.86;99969.94;116338;1192;22916;-78
2021/09/18 03:56:07;;;;;;;12.60;11.70;;;;;;;13.72;77.71;99966.36;116448;1191;21934;-78
2021/09/18 03:58:36;;;;;;;12.90;12.00;;;;;;;13.69;77.64;99964.96;116524;1191;22906;-78
2021/09/18 04:01:06;;;;;;;12.50;11.50;;;;;;;13.68;77.87;99962.27;116563;1192;22959;-78
2021/09/18 04:03:35;;;;;;;12.10;11.30;;;;;;;13.69;77.86;99963.42;116434;1179;21887;-77
2021/09/18 04:06:05;;;;;;;14.30;13.20;;;;;;;13.69;77.71;99963.05;116663;1192;22972;-77
2021/09/18 04:08:36;;;;;;;13.20;12.20;;;;;;;13.68;77.64;99965.82;116780;1187;24463;-78
2021/09/18 04:11:06;;;;;;;13.60;12.60;;;;;;;13.68;77.84;99964.99;116750;1188;22917;-78
2021/09/18 04:13:35;;;;;;;14.80;13.60;;;;;;;13.70;77.80;99965.14;116999;1188;21933;-77
2021/09/18 04:16:04;;;;;;;14.10;13.00;;;;;;;13.69;77.68;99964.96;116727;1191;22851;-77
2021/09/18 04:18:34;;;;;;;15.70;14.50;;;;;;;13.70;77.84;99966.11;116753;1190;21856;-77
2021/09/18 04:21:04;;;;;;;14.80;13.50;;;;;;;13.69;77.84;99965.70;116858;1187;21871;-77
2021/09/18 04:23:35;;;;;;;15.20;14.00;;;;;;;13.68;77.77;99963.24;116757;1191;22850;-78
2021/09/18 04:26:05;;;;;;;14.50;13.40;;;;;;;13.67;77.97;99964.91;116765;1190;23522;-77
2021/09/18 04:28:37;;;;;;;14.00;12.80;;;;;;;13.68;78.13;99966.21;116403;1190;24148;-78
2021/09/18 04:31:07;;;;;;;15.10;14.00;;;;;;;13.68;78.07;99966.52;116487;1193;21884;-77
2021/09/18 04:33:37;;;;;;;15.70;14.20;;;;;;;13.67;77.98;99969.48;116537;1192;23429;-77
2021/09/18 04:36:10;;;;;;;14.30;13.10;;;;;;;13.66;78.00;99969.64;116667;1187;21895;-77
2021/09/18 04:38:42;;;;;;;14.30;13.10;;;;;;;13.63;77.95;99971.50;116664;1192;24285;-78
2021/09/18 04:41:15;;;;;;;13.70;12.60;;;;;;;13.61;78.11;99970.73;116749;1192;21878;-76
2021/09/18 04:43:44;;;;;;;13.20;12.30;;;;;;;13.59;78.14;99974.14;116748;1192;22922;-76
2021/09/18 04:46:14;;;;;;;11.70;10.80;;;;;;;13.59;78.13;99978.11;116743;1187;21900;-77
2021/09/18 04:48:45;;;;;;;11.40;10.40;;;;;;;13.58;78.24;99981.73;117032;1188;22889;-78
2021/09/18 04:51:15;;;;;;;;;;;;;;;13.56;78.17;99986.39;117130;1188;22323;-77
2021/09/18 04:53:44;;;;;;;11.80;10.90;;;;;;;13.50;78.45;99988.14;117158;1188;22915;-77
2021/09/18 04:56:14;;;;;;;11.70;10.90;;;;;;;13.50;78.63;99990.30;117025;1188;21966;-77
2021/09/18 04:58:45;;;;;;;11.50;10.60;;;;;;;13.52;78.50;99989.95;117137;1188;22941;-77
2021/09/18 05:01:14;;;;;;;12.20;11.30;;;;;;;13.53;78.36;99990.85;117033;1188;21891;-78
2021/09/18 05:03:44;;;;;;;11.80;10.90;;;;;;;13.53;78.44;99991.26;116826;1190;21914;-78
2021/09/18 05:06:14;;;;;;;10.50;9.80;;;;;;;13.53;78.39;99992.08;116723;1191;21954;-78
2021/09/18 05:08:45;;;;;;;12.40;11.40;;;;;;;13.53;78.39;99990.11;116494;1193;24192;-78
2021/09/18 05:11:15;;;;;;;10.40;9.60;;;;;;;13.53;78.50;99988.45;116411;1193;21897;-78
2021/09/18 05:13:44;;;;;;;12.40;11.20;;;;;;;13.52;78.28;99990.40;116467;1193;22660;-78
2021/09/18 05:16:15;;;;;;;11.50;10.60;;;;;;;13.52;78.57;99988.27;116556;1193;21889;-78
2021/09/18 05:18:44;;;;;;;10.90;10.10;;;;;;;13.53;78.46;99987.51;116428;1193;23458;-77
2021/09/18 05:21:14;;;;;;;11.00;10.20;;;;;;;13.55;78.55;99983.15;116424;1192;23439;-76
2021/09/18 05:23:43;;;;;;;11.20;10.40;;;;;;;13.58;78.48;99985.64;116676;1192;23625;-78
2021/09/18 05:26:12;;;;;;;12.10;11.00;;;;;;;13.60;78.35;99988.07;116586;1188;21877;-77
2021/09/18 05:28:42;;;;;;;12.30;11.00;;;;;;;13.61;78.28;99990.33;117071;1188;21888;-77
2021/09/18 05:31:11;;;;;;;11.20;10.30;;;;;;;13.62;78.34;99991.55;117021;1184;22905;-77
2021/09/18 05:33:40;;;;;;;12.20;11.20;;;;;;;13.61;78.23;99990.34;117046;1187;23595;-77
2021/09/18 05:36:10;;;;;;;11.80;10.90;;;;;;;13.62;78.24;99987.91;117032;1188;23479;-77
2021/09/18 05:38:39;;;;;;;12.80;11.80;;;;;;;13.64;78.24;99986.33;117136;1187;21977;-77
2021/09/18 05:41:09;;;;;;;12.90;11.90;;;;;;;13.65;78.13;99988.98;117012;1188;22887;-78
2021/09/18 05:43:38;;;;;;;14.10;13.00;;;;;;;13.66;78.11;99995.61;117019;1188;22930;-77
2021/09/18 05:46:07;;;;;;;13.90;12.80;;;;;;;13.66;78.06;99998.64;117119;1188;21872;-77
2021/09/18 05:48:37;;;;;;;12.70;11.70;;;;;;;13.64;77.90;99999.77;116702;1191;21997;-77
2021/09/18 05:51:07;;;;;;;14.40;13.30;;;;;;;13.59;77.99;99999.46;116505;1193;22925;-77
2021/09/18 05:53:37;;;;;;;14.30;13.30;;;;;;;13.57;77.91;100001.20;116568;1193;21946;-77
2021/09/18 05:56:06;;;;;;;13.60;12.70;;;;;;;13.55;78.06;99998.79;116433;1193;23539;-78
2021/09/18 05:58:36;;;;;;;14.50;13.40;;;;;;;13.56;78.08;100000.39;116477;1193;23439;-78
2021/09/18 06:01:05;;;;;;;14.00;13.00;;;;;;;13.58;78.21;99999.20;116490;1193;21895;-80
2021/09/18 06:03:36;;;;;;;13.20;12.10;;;;;;;13.61;78.13;100000.89;116383;1195;21994;-81
2021/09/18 06:06:06;;;;;;;13.50;12.30;;;;;;;13.60;78.04;100000.93;116045;1195;21886;-81
2021/09/18 06:08:36;;;;;;;12.70;11.80;;;;;;;13.60;77.86;99996.52;116406;1193;21867;-81
2021/09/18 06:11:06;;;;;;;12.30;11.40;;;;;;;13.61;77.90;99997.17;116510;1193;21930;-81
2021/09/18 06:13:36;;;;;;;12.30;11.40;;;;;;;13.60;77.86;99998.07;116688;1193;21959;-81
2021/09/18 06:16:06;;;;;;;11.80;10.90;;;;;;;13.61;77.79;99998.69;116270;1194;23456;-81
2021/09/18 06:18:35;;;;;;;12.40;11.40;;;;;;;13.63;77.76;99995.80;116223;1195;22184;-81
2021/09/18 06:21:06;;;;;;;12.70;11.70;;;;;;;13.66;77.93;99998.84;116189;1194;21887;-80
2021/09/18 06:23:37;;;;;;;12.60;11.60;;;;;;;13.69;77.81;100000.29;116337;1192;21885;-83
2021/09/18 06:26:08;;;;;;;11.60;10.70;;;;;;;13.69;77.68;100000.90;116569;1192;22062;-82
2021/09/18 06:28:38;;;;;;;12.70;11.70;;;;;;;13.70;77.80;99997.07;116680;1192;24234;-80
2021/09/18 06:31:10;;;;;;;10.40;9.70;;;;;;;13.72;77.82;99997.23;116482;1192;23448;-81
2021/09/18 06:33:39;;;;;;;11.30;10.50;;;;;;;13.71;77.83;100002.70;116415;1190;22632;-81
2021/09/18 06:36:09;;;;;;;11.00;10.20;;;;;;;13.71;77.74;99997.42;116725;1190;23442;-78
2021/09/18 06:38:41;;;;;;;11.40;10.20;;;;;;;13.72;77.77;99997.03;116528;1191;23510;-81
2021/09/18 06:41:11;;;;;;;10.70;9.80;;;;;;;13.73;78.00;99995.65;116668;1190;23508;-74
2021/09/18 06:43:41;;;;;;;12.60;11.60;;;;;;;13.75;77.88;99994.80;116688;1190;23542;-75
2021/09/18 06:46:10;;;;;;;12.80;11.70;;;;;;;13.76;77.91;99997.52;116664;1191;23538;-76
2021/09/18 06:48:41;;;;;;;12.90;11.80;;;;;;;13.76;77.83;99996.85;116674;1191;21880;-76
2021/09/18 06:51:10;;;;;;;14.20;11.20;;;;;;;13.75;77.70;99999.38;116609;1191;21902;-76
2021/09/18 06:53:40;;;;;;;12.70;11.70;;;;;;;13.77;77.92;99996.35;116659;1190;21899;-75
2021/09/18 06:56:10;;;;;;;13.90;13.00;;;;;;;13.78;77.79;100000.16;116713;1190;21876;-76
2021/09/18 06:58:39;;;;;;;14.70;13.70;;;;;;;13.80;77.89;99998.63;116695;1188;21905;-75
2021/09/18 07:01:09;;;;;;;14.90;13.80;;;;;;;13.83;77.73;99996.97;116819;1179;22963;-76
2021/09/18 07:03:39;;;;;;;13.00;12.00;;;;;;;13.86;77.78;99999.35;116797;1188;21890;-76
2021/09/18 07:06:09;;;;;;;14.40;12.90;;;;;;;13.91;77.81;99998.95;117086;1184;21927;-76
2021/09/18 07:08:38;;;;;;;15.00;13.70;;;;;;;13.96;77.71;99996.73;116953;1188;21908;-75
2021/09/18 07:11:07;;;;;;;13.40;12.40;;;;;;;14.02;77.65;100003.58;116724;1179;21875;-74
2021/09/18 07:13:37;;;;;;;13.20;12.10;;;;;;;14.06;77.60;100005.64;116738;1190;23436;-75
2021/09/18 07:16:07;;;;;;;12.00;11.10;;;;;;;14.10;77.51;100004.59;116749;1190;23542;-76
2021/09/18 07:18:36;;;;;;;12.80;11.70;;;;;;;14.10;77.22;100005.24;116806;1187;21906;-76
2021/09/18 07:21:06;;;;;;;12.60;11.50;;;;;;;14.12;77.13;100007.33;116785;1190;21893;-76
2021/09/18 07:23:35;;;;;;;12.60;11.70;;;;;;;14.15;77.15;100012.17;116359;1193;24165;-75
2021/09/18 07:26:05;;;;;;;12.40;11.50;;;;;;;14.18;76.90;100011.07;116615;1193;22831;-76
2021/09/18 07:28:34;;;;;;;13.40;12.10;;;;;;;14.19;76.77;100011.93;116653;1193;21896;-75
2021/09/18 07:31:04;;;;;;;11.00;10.20;;;;;;;14.22;76.70;100017.41;116525;1193;23624;-75
2021/09/18 07:33:33;;;;;;;11.10;10.20;;;;;;;14.24;76.62;100016.77;116538;1192;21909;-76
2021/09/18 07:36:04;;;;;;;11.10;10.20;;;;;;;14.24;76.42;100015.88;116584;1191;22929;-75
2021/09/18 07:38:34;;;;;;;11.60;10.70;;;;;;;14.26;76.46;100020.83;116606;1192;21870;-76
2021/09/18 07:41:04;;;;;;;11.00;10.20;;;;;;;14.28;76.36;100019.06;116665;1188;23552;-75
2021/09/18 07:43:38;;;;;;;9.60;8.80;;;;;;;14.29;76.19;100021.40;116967;1188;21905;-75
2021/09/18 07:46:08;;;;;;;9.60;8.70;;;;;;;14.30;76.15;100025.00;117089;1188;22923;-74
2021/09/18 07:48:39;;;;;;;9.00;8.30;;;;;;;14.32;75.94;100027.52;117005;1188;21891;-79
2021/09/18 07:51:37;;;;;;;9.30;8.50;;;;;;;14.30;75.86;100030.77;116698;1191;22912;-76
2021/09/18 07:54:07;;;;;;;9.90;9.00;;;;;;;14.29;75.84;100029.30;116760;1190;22209;-75
2021/09/18 07:56:37;;;;;;;9.50;8.70;;;;;;;14.29;75.88;100031.70;116729;1190;21900;-75
2021/09/18 07:59:06;;;;;;;9.30;8.60;;;;;;;14.30;75.74;100032.90;116649;1191;21885;-75
2021/09/18 08:01:36;;;;;;;9.50;8.60;;;;;;;14.27;75.61;100031.17;116730;1191;21894;-77
2021/09/18 08:04:06;;;;;;;10.20;8.90;;;;;;;14.25;75.69;100028.59;116737;1190;23075;-76
2021/09/18 08:06:36;;;;;;;10.80;9.20;;;;;;;14.23;75.53;100025.27;116704;1191;22904;-75
2021/09/18 08:09:06;;;;;;;10.20;9.30;;;;;;;14.18;75.49;100024.27;116790;1190;22312;-76
2021/09/18 08:11:37;;;;;;;10.60;9.80;;;;;;;14.15;75.50;100025.11;116651;1191;21913;-76
2021/09/18 08:14:06;;;;;;;10.20;9.30;;;;;;;14.13;75.72;100026.91;116574;1191;21889;-76
2021/09/18 08:16:37;;;;;;;9.60;8.80;;;;;;;14.13;75.77;100031.11;116675;1190;23632;-75
2021/09/18 08:19:06;;;;;;;9.70;8.90;;;;;;;14.10;75.73;100029.52;116590;1182;22006;-75
2021/09/18 08:21:35;;;;;;;9.00;8.30;;;;;;;14.08;75.81;100031.06;116638;1190;23577;-76
2021/09/18 08:24:05;;;;;;;9.60;8.80;;;;;;;14.07;76.03;100037.17;116637;1190;22208;-75
2021/09/18 08:26:34;;;;;;;9.00;8.10;;;;;;;14.09;76.40;100040.99;116401;1192;22886;-76
2021/09/18 08:29:06;;;;;;;8.50;7.80;;;;;;;14.11;76.27;100041.98;116622;1190;21871;-75
2021/09/18 08:31:36;;;;;;;8.50;7.80;;;;;;;14.12;76.34;100042.35;116696;1187;22801;-76
2021/09/18 08:34:05;;;;;;;8.60;7.80;;;;;;;14.16;76.49;100044.05;116689;1187;22933;-75
2021/09/18 08:36:34;;;;;;;8.50;6.40;;;;;;;14.19;76.51;100043.52;116626;1191;22654;-75
2021/09/18 08:39:04;;;;;;;8.20;7.30;;;;;;;14.20;76.76;100042.95;116657;1187;21924;-75
2021/09/18 08:41:34;;;;;;;6.90;6.30;;;;;;;14.23;76.82;100042.73;116333;1193;21918;-76
2021/09/18 08:44:04;;;;;;;9.30;8.50;;;;;;;14.29;77.07;100041.73;116122;1195;21886;-77
2021/09/18 08:46:34;;;;;;;8.80;8.00;;;;;;;14.36;77.42;100045.19;116310;1193;21892;-76
2021/09/18 08:49:03;;;;;;;8.20;7.50;;;;;;;14.41;77.27;100045.96;116337;1194;22649;-76
2021/09/18 08:51:35;;;;;;;8.70;7.20;;;;;;;14.44;77.13;100045.77;116309;1195;21878;-76
2021/09/18 08:54:10;;;;;;;6.90;6.30;;;;;;;14.49;77.43;100044.02;115856;1199;23475;-76
2021/09/18 08:56:39;;;;;;;7.60;6.90;;;;;;;14.54;77.41;100044.80;115853;1197;22086;-76
2021/09/18 08:59:09;;;;;;;7.30;6.70;;;;;;;14.56;77.43;100048.20;115802;1198;22924;-75
2021/09/18 09:01:38;;;;;;;6.90;6.30;;;;;;;14.56;77.30;100047.92;116021;1197;23053;-75
2021/09/18 09:04:09;;;;;;;7.20;6.60;;;;;;;14.56;77.40;100050.83;116073;1197;21893;-76
2021/09/18 09:06:50;;;;;;;7.40;6.80;;;;;;;14.56;77.25;100054.10;115954;1196;22636;-76
2021/09/18 09:09:20;;;;;;;8.10;6.40;;;;;;;14.53;77.26;100053.80;116136;1196;21904;-75
2021/09/18 09:11:52;;;;;;;7.00;6.30;;;;;;;14.51;77.40;100053.91;116122;1180;21884;-76
2021/09/18 09:14:21;;;;;;;5.80;5.30;;;;;;;14.50;77.66;100051.36;116639;1189;22275;-76
2021/09/18 09:17:06;;;;;;;6.20;5.70;;;;;;;14.52;78.09;100049.70;116388;1191;23447;-76
2021/09/18 09:19:40;;;;;;;4.40;4.10;;;;;;;14.53;78.19;100052.95;116637;1190;22515;-75
2021/09/18 09:22:09;;;;;;;6.40;4.40;;;;;;;14.56;78.38;100054.05;116542;1193;21907;-74
2021/09/18 09:24:47;;;;;;;4.90;4.50;;;;;;;14.60;78.49;100052.52;116353;1193;21873;-76
2021/09/18 09:27:20;;;;;;;4.00;3.60;;;;;;;14.63;78.47;100052.88;116173;1196;23055;-76
2021/09/18 09:29:53;;;;;;;4.00;3.40;;;;;;;14.63;78.37;100049.85;116081;1196;23467;-76
2021/09/18 09:32:35;;;;;;;3.70;3.30;;;;;;;14.63;78.38;100052.02;116313;1196;22069;-75
2021/09/18 09:35:10;;;;;;;3.00;2.80;;;;;;;14.65;78.45;100054.03;116236;1193;22955;-76
2021/09/18 09:37:54;;;;;;;3.00;2.70;;;;;;;14.65;78.29;100055.83;116357;1193;23465;-76
2021/09/18 09:40:44;;;;;;;3.10;2.80;;;;;;;14.66;78.41;100055.95;116226;1194;21901;-76
2021/09/18 09:43:19;;;;;;;3.00;2.70;;;;;;;14.73;78.71;100060.02;116325;1190;22298;-75
2021/09/18 09:45:48;;;;;;;3.00;2.60;;;;;;;14.77;78.75;100059.63;116511;1190;23038;-75
2021/09/18 09:48:23;;;;;;;3.00;2.70;;;;;;;14.82;78.41;100061.17;116346;1193;22664;-75
2021/09/18 09:51:02;;;;;;;6.20;5.60;;;;;;;14.85;78.30;100060.61;116383;1192;22180;-75
2021/09/18 09:53:36;;;;;;;3.80;3.50;;;;;;;14.88;78.32;100059.30;116566;1190;22937;-76
2021/09/18 09:56:35;;;;;;;3.80;3.30;;;;;;;14.93;78.28;100059.52;116330;1195;21877;-75
2021/09/18 09:59:04;;;;;;;4.10;3.00;;;;;;;14.96;78.25;100056.49;116082;1196;21908;-75
2021/09/18 10:01:34;;;;;;;3.90;2.90;;;;;;;14.98;77.92;100055.98;116104;1196;22077;-76
2021/09/18 10:04:04;;;;;;;2.50;2.20;;;;;;;15.00;77.62;100058.05;116142;1196;22744;-76
2021/09/18 10:06:34;;;;;;;2.90;2.60;;;;;;;14.97;77.22;100058.25;116104;1196;21891;-76
2021/09/18 10:09:06;;;;;;;3.20;2.60;;;;;;;14.94;77.32;100056.20;116246;1192;21899;-76
2021/09/18 10:11:36;;;;;;;4.00;2.50;;;;;;;14.95;77.45;100058.41;116084;1196;21895;-75
2021/09/18 10:14:06;;;;;;;3.80;2.80;;;;;;;14.96;77.51;100058.41;116419;1187;22267;-75
2021/09/18 10:16:37;;;;;;;3.40;2.20;;;;;;;14.99;77.63;100059.27;116621;1190;21920;-76
2021/09/18 10:19:09;;;;;;;3.50;2.80;;;;;;;14.99;77.41;100057.77;116630;1192;21893;-75
2021/09/18 10:24:34;;;;;;;3.80;3.10;;;;;;;14.99;77.37;100062.48;116091;1197;21888;-76
2021/09/18 10:27:25;;;;;;;3.50;3.20;;;;;;;15.00;77.33;100060.17;115703;1200;21897;-75
2021/09/18 10:29:55;;;;;;;3.20;2.90;;;;;;;14.98;77.16;100061.48;115826;1194;21974;-76
2021/09/18 10:32:24;;;;;;;3.40;3.10;;;;;;;14.97;77.41;100063.98;115802;1200;22972;-76
2021/09/18 10:35:16;;;;;;;3.50;3.20;;;;;;;14.96;77.37;100064.77;115587;1202;22911;-76
2021/09/18 10:37:45;;;;;;;5.00;3.10;;;;;;;14.96;77.42;100066.92;115782;1197;21922;-76
2021/09/18 10:40:17;;;;;;;4.20;3.70;;;;;;;14.96;77.45;100067.41;115878;1197;21916;-76
2021/09/18 10:42:49;;;;;;;3.80;3.10;;;;;;;14.96;77.44;100069.27;115888;1197;22944;-76
2021/09/18 10:45:40;;;;;;;4.00;3.20;;;;;;;14.96;77.42;100065.78;116182;1195;21899;-75
2021/09/18 10:48:38;;;;;;;3.00;2.80;;;;;;;14.97;77.42;100064.52;116185;1195;22001;-76
2021/09/18 10:51:41;;;;;;;3.30;3.00;;;;;;;14.98;77.51;100061.73;116303;1194;22652;-74
2021/09/18 10:54:16;;;;;;;7.00;4.90;;;;;;;15.00;77.65;100063.86;116551;1192;21908;-76
2021/09/18 10:57:02;;;;;;;8.50;5.40;;;;;;;15.05;77.75;100063.28;116608;1192;23763;-76
2021/09/18 10:59:49;;;;;;;12.30;9.80;;;;;;;15.09;77.62;100066.64;116302;1195;22841;-76
2021/09/18 11:02:34;;;;;;;13.10;8.40;;;;;;;15.13;77.78;100065.79;116637;1191;23474;-76
2021/09/18 11:05:20;;;;;;;6.70;5.60;;;;;;;15.18;77.90;100067.38;116606;1191;21917;-75
2021/09/18 11:07:59;;;;;;;7.40;4.00;;;;;;;15.19;77.45;100067.42;116677;1191;21929;-76
2021/09/18 11:11:03;;;;;;;7.40;4.80;;;;;;;15.17;77.41;100071.44;116916;1191;23562;-77
2021/09/18 11:13:39;;;;;;;6.20;5.60;;;;;;;15.17;77.72;100070.82;116385;1193;22897;-75
2021/09/18 11:16:21;;;;;;;7.40;6.70;;;;;;;15.21;77.95;100074.19;116375;1193;23451;-76
2021/09/18 11:19:02;;;;;;;6.50;5.20;;;;;;;15.26;78.18;100074.10;116592;1192;21946;-76
2021/09/18 11:21:37;;;;;;;8.70;5.80;;;;;;;15.28;77.92;100074.91;116636;1191;22382;-75
2021/09/18 11:24:27;;;;;;;8.30;5.80;;;;;;;15.26;77.66;100075.48;116695;1190;24132;-76
2021/09/18 11:26:58;;;;;;;5.50;4.90;;;;;;;15.22;77.63;100074.46;116627;1184;21907;-76
2021/09/18 11:29:37;;;;;;;10.60;5.70;;;;;;;15.18;77.67;100073.73;116696;1191;22833;-75
2021/09/18 11:32:21;;;;;;;8.10;5.20;;;;;;;15.16;78.04;100073.69;116648;1189;21881;-76
2021/09/18 11:34:52;;;;;;;6.40;5.80;;;;;;;15.16;78.20;100072.64;116633;1191;23560;-75
2021/09/18 11:37:39;;;;;;;5.40;4.90;;;;;;;15.18;78.35;100072.21;116675;1191;23230;-76